Time;durP1;ratioP1;P1;durP2;ratioP2;P2;SDS_P1;SDS_P2;PMS_P1;PMS_P2;Temp;Humidity;BMP_temperature;BMP_pressure;BME280_temperature;BME280_humidity;BME280_pressure;Samples;Min_cycle;Max_cycle;Signal;HPM_P1;HPM_P2
2022/12/27 00:00:25;;;;;;;12.73;2.80;;;;;;;;;;5099710;28;20047;-72
2022/12/27 00:02:52;;;;;;;12.65;3.47;;;;;;;;;;5100249;28;20404;-72
2022/12/27 00:05:18;;;;;;;12.20;3.40;;;;;;;;;;5099305;28;20095;-72
2022/12/27 00:07:44;;;;;;;11.85;3.33;;;;;;;;;;5085646;28;20036;-72
2022/12/27 00:10:11;;;;;;;7.32;2.75;;;;;;;;;;5090583;28;20649;-71
2022/12/27 00:12:37;;;;;;;10.63;2.95;;;;;;;;;;5087610;28;20500;-72
2022/12/27 00:15:04;;;;;;;11.40;2.75;;;;;;;;;;5089208;28;20068;-72
2022/12/27 00:17:30;;;;;;;10.05;2.55;;;;;;;;;;5080779;28;20059;-72
2022/12/27 00:19:56;;;;;;;16.75;3.60;;;;;;;;;;5083029;28;20059;-72
2022/12/27 00:22:22;;;;;;;12.30;3.08;;;;;;;;;;5102915;28;20040;-72
2022/12/27 00:24:49;;;;;;;19.08;4.10;;;;;;;;;;5075704;28;20051;-72
2022/12/27 00:27:15;;;;;;;9.93;2.97;;;;;;;;;;5083307;28;20036;-72
2022/12/27 00:29:42;;;;;;;8.48;2.97;;;;;;;;;;5086174;28;20121;-72
2022/12/27 00:32:08;;;;;;;11.07;3.17;;;;;;;;;;5087115;28;20047;-72
2022/12/27 00:34:34;;;;;;;18.23;2.80;;;;;;;;;;5078703;28;20033;-72
2022/12/27 00:37:00;;;;;;;12.30;2.80;;;;;;;;;;5095088;28;20459;-72
2022/12/27 00:39:26;;;;;;;10.68;3.78;;;;;;;;;;5072813;28;20079;-72
2022/12/27 00:41:52;;;;;;;14.43;3.72;;;;;;;;;;5091454;28;20147;-72
2022/12/27 00:44:18;;;;;;;12.23;3.78;;;;;;;;;;5061315;28;20044;-72
2022/12/27 00:46:45;;;;;;;11.50;3.33;;;;;;;;;;5089600;28;20040;-72
2022/12/27 00:49:11;;;;;;;9.43;3.13;;;;;;;;;;5088110;28;20044;-72
2022/12/27 00:51:37;;;;;;;8.80;3.17;;;;;;;;;;5090518;28;20032;-72
2022/12/27 00:54:03;;;;;;;16.30;3.50;;;;;;;;;;5089738;28;20035;-72
2022/12/27 00:56:30;;;;;;;10.07;2.88;;;;;;;;;;5090690;28;20032;-71
2022/12/27 00:58:57;;;;;;;6.68;3.10;;;;;;;;;;5070938;28;20430;-72
2022/12/27 01:01:24;;;;;;;20.75;4.53;;;;;;;;;;5100024;28;20031;-72
2022/12/27 01:03:51;;;;;;;13.05;4.30;;;;;;;;;;5089536;28;20094;-72
2022/12/27 01:06:18;;;;;;;9.38;2.88;;;;;;;;;;5076545;28;20624;-72
2022/12/27 01:08:45;;;;;;;12.82;2.97;;;;;;;;;;5094866;28;20135;-72
2022/12/27 01:11:12;;;;;;;6.95;3.17;;;;;;;;;;5075677;28;20043;-72
2022/12/27 01:13:39;;;;;;;12.93;3.85;;;;;;;;;;5089793;28;20040;-72
2022/12/27 01:16:09;;;;;;;11.45;3.53;;;;;;;;;;5074341;28;20036;-72
2022/12/27 01:18:36;;;;;;;12.93;4.00;;;;;;;;;;5077061;28;20089;-72
2022/12/27 01:21:09;;;;;;;6.50;2.50;;;;;;;;;;5112279;27;20055;-72
2022/12/27 01:23:36;;;;;;;9.27;2.60;;;;;;;;;;5102959;27;20198;-72
2022/12/27 01:26:03;;;;;;;9.43;2.75;;;;;;;;;;5087397;28;20032;-72
2022/12/27 01:28:29;;;;;;;8.52;2.67;;;;;;;;;;5104846;27;20040;-72
2022/12/27 01:30:55;;;;;;;11.02;2.22;;;;;;;;;;5070113;28;20080;-72
2022/12/27 01:33:22;;;;;;;7.07;2.45;;;;;;;;;;5091567;28;20422;-70
2022/12/27 01:35:48;;;;;;;19.52;3.90;;;;;;;;;;5088799;28;20482;-73
2022/12/27 01:38:14;;;;;;;13.88;3.10;;;;;;;;;;5085899;28;20105;-72
2022/12/27 01:40:40;;;;;;;15.77;4.90;;;;;;;;;;5082471;28;20402;-72
2022/12/27 01:43:14;;;;;;;13.70;2.88;;;;;;;;;;5085666;28;20044;-72
2022/12/27 01:45:40;;;;;;;8.40;2.13;;;;;;;;;;5094285;28;20142;-72
2022/12/27 01:48:15;;;;;;;7.32;1.40;;;;;;;;;;5059402;28;20077;-72
2022/12/27 01:50:44;;;;;;;7.05;2.10;;;;;;;;;;5090906;28;20036;-72
2022/12/27 01:53:18;;;;;;;6.05;2.70;;;;;;;;;;5089477;28;20448;-71
2022/12/27 01:55:47;;;;;;;6.00;2.15;;;;;;;;;;5075066;28;20051;-72
2022/12/27 01:58:24;;;;;;;8.07;2.22;;;;;;;;;;5077736;28;20443;-73
2022/12/27 02:00:51;;;;;;;9.60;2.05;;;;;;;;;;5088755;28;20433;-72
2022/12/27 02:03:20;;;;;;;7.68;2.38;;;;;;;;;;5090354;28;20044;-72
2022/12/27 02:05:46;;;;;;;13.55;2.30;;;;;;;;;;5083084;28;20074;-73
2022/12/27 02:08:18;;;;;;;10.90;3.20;;;;;;;;;;5079602;28;20413;-72
2022/12/27 02:10:45;;;;;;;5.75;2.67;;;;;;;;;;5085346;28;20097;-72
2022/12/27 02:13:12;;;;;;;7.97;2.42;;;;;;;;;;5089078;28;20062;-72
2022/12/27 02:15:38;;;;;;;12.35;2.95;;;;;;;;;;5084713;28;20032;-72
2022/12/27 02:18:04;;;;;;;12.65;3.05;;;;;;;;;;5088202;28;20104;-73
2022/12/27 02:20:35;;;;;;;11.77;2.92;;;;;;;;;;5085719;28;20102;-72
2022/12/27 02:25:59;;;;;;;6.03;2.50;;;;;;;;;;5088927;28;20044;-72
2022/12/27 02:28:40;;;;;;;11.43;3.13;;;;;;;;;;5093380;28;20067;-73
2022/12/27 02:31:13;;;;;;;22.33;4.00;;;;;;;;;;5088364;28;20513;-72
2022/12/27 02:33:45;;;;;;;9.82;2.67;;;;;;;;;;5087779;28;20187;-72
2022/12/27 02:36:15;;;;;;;5.20;2.60;;;;;;;;;;5080803;28;20260;-72
2022/12/27 02:38:44;;;;;;;11.48;3.05;;;;;;;;;;5087054;28;20035;-72
2022/12/27 02:55:16;;;;;;;12.13;3.13;;;;;;;;;;5087718;28;20047;-72
2022/12/27 02:57:51;;;;;;;7.78;2.85;;;;;;;;;;5074231;28;20070;-73
2022/12/27 03:03:19;;;;;;;10.50;3.42;;;;;;;;;;5086847;28;20047;-73
2022/12/27 03:08:54;;;;;;;7.30;2.80;;;;;;;;;;5089833;28;20120;-72
2022/12/27 03:17:19;;;;;;;7.47;3.28;;;;;;;;;;5075740;28;20501;-72
2022/12/27 03:25:28;;;;;;;10.15;3.55;;;;;;;;;;5068397;28;20409;-72
2022/12/27 03:33:45;;;;;;;9.10;3.58;;;;;;;;;;5092894;28;20428;-72
2022/12/27 03:38:59;;;;;;;5.72;2.60;;;;;;;;;;5077710;28;20456;-72
2022/12/27 03:44:24;;;;;;;8.50;2.70;;;;;;;;;;5070837;28;20040;-72
2022/12/27 03:46:56;;;;;;;8.52;2.45;;;;;;;;;;5089674;28;20036;-72
2022/12/27 03:49:25;;;;;;;9.52;2.72;;;;;;;;;;5091343;28;20036;-72
2022/12/27 03:51:57;;;;;;;7.00;2.78;;;;;;;;;;5093339;28;20067;-72
2022/12/27 03:54:28;;;;;;;6.90;2.38;;;;;;;;;;5076143;28;20047;-72
2022/12/27 03:56:56;;;;;;;20.05;3.83;;;;;;;;;;5088812;28;20066;-72
2022/12/27 03:59:22;;;;;;;8.75;2.88;;;;;;;;;;5086106;28;20163;-72
2022/12/27 04:01:48;;;;;;;7.78;3.03;;;;;;;;;;5092076;28;20082;-72
2022/12/27 04:04:14;;;;;;;16.27;4.05;;;;;;;;;;5091991;28;20036;-72
2022/12/27 04:06:41;;;;;;;12.65;3.53;;;;;;;;;;5093518;28;20042;-72
2022/12/27 04:36:38;;;;;;;10.25;2.80;;;;;;;;;;5087871;28;20040;-73
2022/12/27 04:39:04;;;;;;;8.65;2.85;;;;;;;;;;5091961;28;20040;-72
2022/12/27 04:55:20;;;;;;;8.57;2.83;;;;;;;;;;5114558;27;20509;-72
2022/12/27 04:57:46;;;;;;;7.60;2.67;;;;;;;;;;5076647;28;20074;-72
2022/12/27 05:02:59;;;;;;;7.78;3.97;;;;;;;;;;5087081;28;20097;-72
2022/12/27 05:05:25;;;;;;;11.63;4.00;;;;;;;;;;5096883;28;20058;-72
2022/12/27 05:16:06;;;;;;;14.50;3.75;;;;;;;;;;5071167;28;20055;-72
2022/12/27 05:18:32;;;;;;;10.35;3.28;;;;;;;;;;5090171;28;20044;-72
2022/12/27 05:21:03;;;;;;;15.05;5.07;;;;;;;;;;5094915;28;20091;-72
2022/12/27 05:26:24;;;;;;;17.77;4.45;;;;;;;;;;5090302;28;20217;-72
2022/12/27 05:28:51;;;;;;;9.50;3.65;;;;;;;;;;5073056;28;20158;-72
2022/12/27 05:31:17;;;;;;;10.63;3.55;;;;;;;;;;5097711;28;20136;-72
2022/12/27 05:33:43;;;;;;;7.00;3.40;;;;;;;;;;5089835;28;20032;-72
2022/12/27 05:36:10;;;;;;;6.20;3.03;;;;;;;;;;5068639;28;20117;-72
2022/12/27 05:38:36;;;;;;;12.02;3.45;;;;;;;;;;5088111;28;20521;-72
2022/12/27 05:41:02;;;;;;;9.57;4.28;;;;;;;;;;5056266;28;20421;-72
2022/12/27 05:43:29;;;;;;;12.65;3.97;;;;;;;;;;5106489;27;20518;-72
2022/12/27 05:45:56;;;;;;;8.68;3.05;;;;;;;;;;5093666;28;20404;-72
2022/12/27 05:48:22;;;;;;;8.13;2.75;;;;;;;;;;5055115;28;20044;-72
2022/12/27 05:50:50;;;;;;;6.60;2.78;;;;;;;;;;5089349;28;20115;-72
2022/12/27 05:53:17;;;;;;;13.20;3.15;;;;;;;;;;5060022;28;20046;-72
2022/12/27 05:55:43;;;;;;;8.40;3.70;;;;;;;;;;5086977;28;20044;-72
2022/12/27 05:58:09;;;;;;;11.15;4.03;;;;;;;;;;5081440;28;20041;-72
2022/12/27 06:00:35;;;;;;;8.52;2.92;;;;;;;;;;5092973;28;20127;-73
2022/12/27 06:03:02;;;;;;;9.73;4.30;;;;;;;;;;5079384;28;20094;-73
2022/12/27 06:05:28;;;;;;;13.93;3.92;;;;;;;;;;5074223;28;20047;-70
2022/12/27 06:07:54;;;;;;;12.20;3.70;;;;;;;;;;5089468;28;20144;-72
2022/12/27 06:10:20;;;;;;;10.48;4.10;;;;;;;;;;5084463;28;20117;-72
2022/12/27 06:12:46;;;;;;;9.13;3.65;;;;;;;;;;5091101;28;20119;-72
2022/12/27 06:15:12;;;;;;;9.40;3.90;;;;;;;;;;5089130;28;20044;-72
2022/12/27 06:17:38;;;;;;;7.70;3.50;;;;;;;;;;5089011;28;20032;-72
2022/12/27 06:20:05;;;;;;;20.65;3.72;;;;;;;;;;5089294;28;20052;-72
2022/12/27 06:22:31;;;;;;;7.40;3.15;;;;;;;;;;5088552;28;20067;-71
2022/12/27 06:24:57;;;;;;;9.02;3.67;;;;;;;;;;5088012;28;20036;-72
2022/12/27 06:27:23;;;;;;;12.75;3.83;;;;;;;;;;5074346;28;20075;-72
2022/12/27 06:29:49;;;;;;;16.20;3.45;;;;;;;;;;5071212;28;20079;-72
2022/12/27 06:32:16;;;;;;;14.43;3.53;;;;;;;;;;5078451;28;20122;-72
2022/12/27 06:34:43;;;;;;;14.32;3.25;;;;;;;;;;5089132;28;20036;-72
2022/12/27 06:37:09;;;;;;;11.27;4.00;;;;;;;;;;5090356;28;20513;-72
2022/12/27 06:39:35;;;;;;;11.40;4.60;;;;;;;;;;5086518;28;20059;-72
2022/12/27 06:42:01;;;;;;;10.18;3.58;;;;;;;;;;5091715;28;20185;-72
2022/12/27 06:44:27;;;;;;;8.88;3.35;;;;;;;;;;5105545;27;20039;-72
2022/12/27 06:46:53;;;;;;;9.40;3.78;;;;;;;;;;5054938;28;20032;-73
2022/12/27 06:49:19;;;;;;;7.10;2.90;;;;;;;;;;5078995;28;20118;-72
2022/12/27 06:51:47;;;;;;;7.13;3.13;;;;;;;;;;5085975;28;20043;-72
2022/12/27 06:54:13;;;;;;;6.60;3.20;;;;;;;;;;5086007;28;20059;-72
2022/12/27 06:56:39;;;;;;;10.98;3.63;;;;;;;;;;5070927;28;20046;-72
2022/12/27 06:59:06;;;;;;;6.38;3.17;;;;;;;;;;5100696;28;20440;-72
2022/12/27 07:01:32;;;;;;;15.90;3.45;;;;;;;;;;5089185;28;20036;-72
2022/12/27 07:03:59;;;;;;;9.35;2.53;;;;;;;;;;5067078;28;20071;-72
2022/12/27 07:06:26;;;;;;;12.05;3.45;;;;;;;;;;5076542;28;20599;-72
2022/12/27 07:08:53;;;;;;;7.90;3.17;;;;;;;;;;5070327;28;20040;-71
2022/12/27 07:11:19;;;;;;;9.75;2.90;;;;;;;;;;5086598;28;20044;-71
2022/12/27 07:13:47;;;;;;;10.13;3.72;;;;;;;;;;5084471;28;20119;-72
2022/12/27 07:16:15;;;;;;;23.52;3.33;;;;;;;;;;5089575;28;20071;-71
2022/12/27 07:18:41;;;;;;;9.70;2.97;;;;;;;;;;5064197;28;20079;-71
2022/12/27 07:21:08;;;;;;;8.25;3.45;;;;;;;;;;5063758;28;20421;-72
2022/12/27 07:23:35;;;;;;;7.82;3.42;;;;;;;;;;5082582;28;20037;-72
2022/12/27 07:26:06;;;;;;;11.45;3.40;;;;;;;;;;5084831;28;20048;-72
2022/12/27 07:28:32;;;;;;;6.97;2.75;;;;;;;;;;5080442;28;20040;-72
2022/12/27 07:30:58;;;;;;;9.02;3.53;;;;;;;;;;5081738;28;20042;-72
2022/12/27 07:33:24;;;;;;;14.30;3.88;;;;;;;;;;5078560;28;20037;-72
2022/12/27 07:35:57;;;;;;;11.88;3.40;;;;;;;;;;5081437;28;20036;-72
2022/12/27 07:38:23;;;;;;;7.10;3.63;;;;;;;;;;5084958;28;20482;-72
2022/12/27 07:40:49;;;;;;;9.45;3.60;;;;;;;;;;5085985;28;20504;-72
2022/12/27 07:43:15;;;;;;;11.40;3.28;;;;;;;;;;5084585;28;20036;-71
2022/12/27 07:45:41;;;;;;;11.63;3.50;;;;;;;;;;5079939;28;20475;-72
2022/12/27 07:48:07;;;;;;;8.77;3.58;;;;;;;;;;5064954;28;20036;-71
2022/12/27 07:50:33;;;;;;;13.00;3.78;;;;;;;;;;5088367;28;20036;-73
2022/12/27 07:53:00;;;;;;;11.10;3.30;;;;;;;;;;5079525;28;20044;-72
2022/12/27 07:55:26;;;;;;;12.05;3.60;;;;;;;;;;5083690;28;20371;-71
2022/12/27 07:57:52;;;;;;;6.57;3.35;;;;;;;;;;5070140;28;20086;-72
2022/12/27 08:00:18;;;;;;;12.43;3.63;;;;;;;;;;5101647;27;20044;-71
2022/12/27 08:02:46;;;;;;;11.18;3.53;;;;;;;;;;5085199;28;20050;-71
2022/12/27 08:05:12;;;;;;;10.82;4.28;;;;;;;;;;5087757;28;20607;-72
2022/12/27 08:07:39;;;;;;;9.45;3.60;;;;;;;;;;5068533;28;20414;-72
2022/12/27 08:10:06;;;;;;;7.95;2.90;;;;;;;;;;5079239;28;20033;-71
2022/12/27 08:12:32;;;;;;;7.43;2.92;;;;;;;;;;5066569;28;20378;-72
2022/12/27 08:14:58;;;;;;;10.27;3.15;;;;;;;;;;5080279;28;20500;-72
2022/12/27 08:17:26;;;;;;;9.77;3.58;;;;;;;;;;5077002;28;20067;-72
2022/12/27 08:19:54;;;;;;;8.85;3.80;;;;;;;;;;5079552;28;20564;-72
2022/12/27 08:22:21;;;;;;;7.47;2.53;;;;;;;;;;5078493;28;20597;-72
2022/12/27 08:24:47;;;;;;;18.92;2.85;;;;;;;;;;5067388;28;20062;-72
2022/12/27 08:27:19;;;;;;;11.73;3.22;;;;;;;;;;5076793;28;20137;-71
2022/12/27 08:29:45;;;;;;;8.93;3.83;;;;;;;;;;5080271;28;20429;-72
2022/12/27 08:32:11;;;;;;;10.25;3.35;;;;;;;;;;5083112;28;21155;-72
2022/12/27 08:34:38;;;;;;;15.88;3.92;;;;;;;;;;5081159;28;20050;-72
2022/12/27 08:37:04;;;;;;;8.65;3.65;;;;;;;;;;5069576;28;20064;-72
2022/12/27 08:39:30;;;;;;;6.53;2.85;;;;;;;;;;5085548;28;20142;-72
2022/12/27 08:41:56;;;;;;;8.43;3.38;;;;;;;;;;5064359;28;20170;-70
2022/12/27 08:44:22;;;;;;;7.22;2.55;;;;;;;;;;5082012;28;20536;-72
2022/12/27 08:46:49;;;;;;;13.23;4.10;;;;;;;;;;5083281;28;20132;-72
2022/12/27 08:49:15;;;;;;;11.90;3.03;;;;;;;;;;5085532;28;20267;-72
2022/12/27 08:51:41;;;;;;;10.27;2.95;;;;;;;;;;5079563;28;20142;-72
2022/12/27 08:54:07;;;;;;;10.82;3.95;;;;;;;;;;5063734;28;20450;-72
2022/12/27 08:56:33;;;;;;;13.23;4.30;;;;;;;;;;5083902;28;20063;-72
2022/12/27 08:59:00;;;;;;;12.80;3.95;;;;;;;;;;5078963;28;20040;-72
2022/12/27 09:01:26;;;;;;;11.80;4.30;;;;;;;;;;5061326;28;20058;-72
2022/12/27 09:03:52;;;;;;;11.40;2.97;;;;;;;;;;5073150;28;20543;-72
2022/12/27 09:06:20;;;;;;;10.63;3.42;;;;;;;;;;5090638;28;20119;-72
2022/12/27 09:08:47;;;;;;;7.95;3.30;;;;;;;;;;5091577;28;20040;-72
2022/12/27 09:11:14;;;;;;;10.57;4.10;;;;;;;;;;5093744;28;20043;-72
2022/12/27 09:13:41;;;;;;;10.68;3.53;;;;;;;;;;5077672;28;20121;-72
2022/12/27 09:16:08;;;;;;;10.32;3.00;;;;;;;;;;5078672;28;20569;-71
2022/12/27 09:18:34;;;;;;;11.25;3.20;;;;;;;;;;5077842;28;20532;-72
2022/12/27 09:21:08;;;;;;;12.68;3.72;;;;;;;;;;5051465;28;20057;-72
2022/12/27 09:23:34;;;;;;;14.43;3.17;;;;;;;;;;5069535;28;20062;-72
2022/12/27 09:26:08;;;;;;;7.93;3.67;;;;;;;;;;5073106;28;20407;-72
2022/12/27 09:28:35;;;;;;;4.82;2.88;;;;;;;;;;5068611;28;20127;-72
2022/12/27 09:31:01;;;;;;;11.52;3.20;;;;;;;;;;5061399;28;20044;-72
2022/12/27 09:33:28;;;;;;;9.20;3.38;;;;;;;;;;5076537;28;20047;-72
2022/12/27 09:36:00;;;;;;;21.50;4.13;;;;;;;;;;5064119;28;20040;-72
2022/12/27 09:38:26;;;;;;;9.82;3.53;;;;;;;;;;5080354;28;20123;-72
2022/12/27 09:40:54;;;;;;;10.63;3.42;;;;;;;;;;5058433;28;20542;-72
2022/12/27 09:43:22;;;;;;;9.88;3.75;;;;;;;;;;5057944;28;20047;-72
2022/12/27 09:45:50;;;;;;;8.07;2.72;;;;;;;;;;5073794;28;20440;-72
2022/12/27 09:48:37;;;;;;;8.25;3.08;;;;;;;;;;5047090;28;20048;-71
2022/12/27 09:51:08;;;;;;;10.85;3.33;;;;;;;;;;5045783;28;20471;-72
2022/12/27 09:53:46;;;;;;;11.30;3.42;;;;;;;;;;5065332;28;20032;-72
2022/12/27 09:56:14;;;;;;;11.50;3.58;;;;;;;;;;5060420;28;20043;-72
2022/12/27 09:58:40;;;;;;;6.63;2.97;;;;;;;;;;5064631;28;20079;-71
2022/12/27 10:01:18;;;;;;;11.75;3.65;;;;;;;;;;5059814;28;20083;-72
2022/12/27 10:03:44;;;;;;;12.73;3.22;;;;;;;;;;5061865;28;20052;-72
2022/12/27 10:06:20;;;;;;;9.52;4.18;;;;;;;;;;5058358;28;20044;-73
2022/12/27 10:09:15;;;;;;;7.93;2.92;;;;;;;;;;5057156;28;20044;-73
2022/12/27 10:11:41;;;;;;;7.05;3.15;;;;;;;;;;5063728;28;20401;-73
2022/12/27 10:14:30;;;;;;;8.45;2.78;;;;;;;;;;5064685;28;20047;-73
2022/12/27 10:16:59;;;;;;;7.32;2.95;;;;;;;;;;5046153;28;20047;-73
2022/12/27 10:19:31;;;;;;;16.90;3.22;;;;;;;;;;5066285;28;20059;-73
2022/12/27 10:21:58;;;;;;;11.23;3.17;;;;;;;;;;5087944;28;20135;-73
2022/12/27 10:24:27;;;;;;;9.77;2.92;;;;;;;;;;5065095;28;20049;-72
2022/12/27 10:26:54;;;;;;;9.60;3.28;;;;;;;;;;5072906;28;20127;-73
2022/12/27 10:29:22;;;;;;;7.78;2.22;;;;;;;;;;5080482;28;20506;-73
2022/12/27 10:31:49;;;;;;;12.13;3.17;;;;;;;;;;5080473;28;20042;-73
2022/12/27 10:34:16;;;;;;;9.60;2.90;;;;;;;;;;5094652;27;20601;-72
2022/12/27 10:36:44;;;;;;;8.20;3.25;;;;;;;;;;5083118;28;20051;-73
2022/12/27 10:39:19;;;;;;;7.40;2.38;;;;;;;;;;5099920;28;20032;-72
2022/12/27 10:41:50;;;;;;;10.77;2.75;;;;;;;;;;5085793;28;20123;-72
2022/12/27 10:44:16;;;;;;;9.13;3.13;;;;;;;;;;5088357;28;20094;-72
2022/12/27 10:46:43;;;;;;;6.72;2.38;;;;;;;;;;5069498;28;20039;-72
2022/12/27 10:49:18;;;;;;;10.20;2.83;;;;;;;;;;5085493;28;20492;-73
2022/12/27 10:51:45;;;;;;;10.50;2.80;;;;;;;;;;5102634;28;20123;-72
2022/12/27 10:54:15;;;;;;;10.75;3.38;;;;;;;;;;5082868;28;20429;-73
2022/12/27 10:56:43;;;;;;;6.50;2.78;;;;;;;;;;5066729;28;20504;-73
2022/12/27 10:59:15;;;;;;;7.90;3.45;;;;;;;;;;5072959;28;20065;-72
2022/12/27 11:01:42;;;;;;;6.57;2.25;;;;;;;;;;5078559;28;20443;-72
2022/12/27 11:04:08;;;;;;;6.15;1.92;;;;;;;;;;5080248;28;20068;-73
2022/12/27 11:06:34;;;;;;;8.93;3.33;;;;;;;;;;5082088;28;20185;-73
2022/12/27 11:09:17;;;;;;;10.43;4.45;;;;;;;;;;5072303;28;20032;-73
2022/12/27 11:11:43;;;;;;;8.32;2.47;;;;;;;;;;5072524;28;20047;-72
2022/12/27 11:14:12;;;;;;;10.65;3.08;;;;;;;;;;5088879;28;20044;-73
2022/12/27 11:16:39;;;;;;;5.63;2.38;;;;;;;;;;5102771;27;20039;-73
2022/12/27 11:19:06;;;;;;;10.70;2.90;;;;;;;;;;5090728;28;20143;-73
2022/12/27 11:21:38;;;;;;;11.73;3.58;;;10.40;99.90;;;;;;5092803;28;20278;-73
2022/12/27 11:24:04;;;;;;;11.25;3.13;;;;;;;;;;5059769;28;20123;-73
2022/12/27 11:26:37;;;;;;;9.63;2.88;;;;;;;;;;5077525;28;20071;-73
2022/12/27 11:29:03;;;;;;;10.02;3.00;;;;;;;;;;5079732;28;20127;-73
2022/12/27 11:31:32;;;;;;;10.00;2.22;;;7.10;99.90;;;;;;5076133;28;20032;-73
2022/12/27 11:34:20;;;;;;;7.53;3.63;;;7.50;99.90;;;;;;5086213;28;20040;-74
2022/12/27 11:36:50;;;;;;;8.50;3.28;;;7.50;99.90;;;;;;5083452;28;20753;-74
2022/12/27 11:39:41;;;;;;;12.18;2.85;;;7.40;99.90;;;;;;5062820;28;20216;-74
2022/12/27 11:42:10;;;;;;;8.15;2.47;;;;;;;;;;5102707;27;20168;-73
2022/12/27 11:44:39;;;;;;;12.27;3.80;;;;;;;;;;5091554;28;20055;-72
2022/12/27 11:47:19;;;;;;;7.60;2.97;;;7.50;99.90;;;;;;5065829;28;20532;-74
2022/12/27 11:50:02;;;;;;;7.18;2.97;;;8.10;99.90;;;;;;5086520;28;20048;-74
2022/12/27 11:52:31;;;;;;;7.70;2.50;;;;;;;;;;5086369;28;20042;-73
2022/12/27 11:55:27;;;;;;;8.27;3.03;;;;;;;;;;5089697;28;20025;-74
2022/12/27 11:57:53;;;;;;;4.32;2.72;;;;;;;;;;5083522;28;20059;-74
2022/12/27 12:00:25;;;;;;;10.68;3.08;;;;;;;;;;5088051;28;20186;-74
2022/12/27 12:02:57;;;;;;;10.38;3.03;;;;;;;;;;5078471;28;20130;-74
2022/12/27 12:05:40;;;;;;;9.30;3.83;;;;;;;;;;5087073;28;20119;-74
2022/12/27 12:08:09;;;;;;;6.68;2.60;;;;;;;;;;5095052;28;20560;-74
2022/12/27 12:10:42;;;;;;;5.47;2.58;;;;;;;;;;5076167;28;20684;-73
2022/12/27 12:13:11;;;;;;;5.47;2.85;;;;;;;;;;5073106;28;20044;-74
2022/12/27 12:15:49;;;;;;;9.75;3.00;;;;;;;;;;5087626;28;20047;-73
2022/12/27 12:18:34;;;;;;;13.30;3.17;;;;;;;;;;5086270;28;20044;-74
2022/12/27 12:21:16;;;;;;;15.32;3.22;;;;;;;;;;5086397;28;20064;-74
2022/12/27 12:23:49;;;;;;;11.80;4.07;;;;;;;;;;5077840;28;20047;-74
2022/12/27 12:26:19;;;;;;;16.27;3.38;;;;;;;;;;5076736;28;20050;-74
2022/12/27 12:28:45;;;;;;;6.03;3.00;;;8.40;99.90;;;;;;5074041;28;20641;-73
2022/12/27 12:31:20;;;;;;;8.50;2.83;;;8.80;99.90;;;;;;5082601;28;20036;-74
2022/12/27 12:34:17;;;;;;;8.80;3.25;;;8.50;99.90;;;;;;5087591;28;20131;-74
2022/12/27 12:37:21;;;;;;;11.00;3.72;;;;;;;;;;5077462;28;20120;-73
2022/12/27 12:40:03;;;;;;;11.02;3.40;;;;;;;;;;5012938;28;20108;-73
2022/12/27 12:42:44;;;;;;;12.48;5.18;;;;;;;;;;4992088;28;20061;-74
2022/12/27 12:45:25;;;;;;;13.43;5.82;;;7.70;99.90;;;;;;5043164;28;20109;-73
2022/12/27 12:48:01;;;;;;;10.07;4.20;;;7.50;99.90;;;;;;5081813;28;20048;-73
2022/12/27 12:50:57;;;;;;;6.43;2.63;;;7.40;99.90;;;;;;5083806;28;20045;-74
2022/12/27 12:53:37;;;;;;;8.25;2.72;;;;;;;;;;5092305;28;20169;-73
2022/12/27 12:56:19;;;;;;;8.85;2.80;;;;;;;;;;5093690;28;20120;-71
2022/12/27 12:58:52;;;;;;;4.35;2.70;;;;;;;;;;5084323;28;20032;-73
2022/12/27 13:01:30;;;;;;;5.90;3.13;;;;;;;;;;5083466;28;20058;-72
2022/12/27 13:04:00;;;;;;;7.57;3.05;;;;;;;;;;5089317;28;20150;-73
2022/12/27 13:06:45;;;;;;;13.40;4.20;;;;;;;;;;5072292;28;20075;-73
2022/12/27 13:09:37;;;;;;;15.55;4.53;;;;;;;;;;5071463;28;20032;-74
2022/12/27 13:12:18;;;;;;;9.57;3.13;;;;;;;;;;5089835;28;20040;-73
2022/12/27 13:14:45;;;;;;;8.85;3.42;;;;;;;;;;5089560;28;20105;-73
2022/12/27 13:17:14;;;;;;;6.10;3.25;;;;;;;;;;5093193;28;20513;-73
2022/12/27 13:19:43;;;;;;;8.07;3.75;;;;;;;;;;5075338;28;20044;-73
2022/12/27 13:22:13;;;;;;;11.50;3.78;;;;;;;;;;5067770;28;20457;-73
2022/12/27 13:25:06;;;;;;;10.73;3.83;;;7.20;99.90;;;;;;5065902;28;20449;-73
2022/12/27 13:27:34;;;;;;;11.38;3.17;;;;;;;;;;5090454;28;20048;-73
2022/12/27 13:30:19;;;;;;;6.80;3.25;;;6.90;99.90;;;;;;5087941;28;20545;-73
2022/12/27 13:33:09;;;;;;;9.27;3.60;;;6.70;99.90;;;;;;5100477;27;20130;-73
2022/12/27 13:35:45;;;;;;;13.02;4.30;;;;;;;;;;5071291;28;20097;-73
2022/12/27 13:38:16;;;;;;;9.63;3.83;;;;;;;;;;5077698;28;20543;-73
2022/12/27 13:41:01;;;;;;;14.18;4.32;;;;;;;;;;5056540;28;20527;-73
2022/12/27 13:43:52;;;;;;;11.82;4.40;;;6.60;99.90;;;;;;5066564;28;20046;-72
2022/12/27 13:46:37;;;;;;;10.30;4.10;;;;;;;;;;5077333;28;20579;-72
2022/12/27 13:49:12;;;;;;;9.77;4.20;;;;;;;;;;5060617;28;20035;-72
2022/12/27 13:51:43;;;;;;;9.57;4.68;;;6.40;99.90;;;;;;5078831;28;20051;-73
2022/12/27 13:54:18;;;;;;;11.57;4.57;;;6.30;99.90;;;;;;5077150;28;20409;-71
2022/12/27 13:57:00;;;;;;;13.32;4.97;;;;;;;;;;5073301;28;20135;-72
2022/12/27 13:59:35;;;;;;;12.27;4.18;;;;;;;;;;5075325;28;20145;-73
2022/12/27 14:02:01;;;;;;;9.07;4.18;;;;;;;;;;5072417;28;20575;-73
2022/12/27 14:04:54;;;;;;;9.85;3.70;;;;;;;;;;5062570;28;20094;-72
2022/12/27 14:07:43;;;;;;;10.48;3.53;;;;;;;;;;5058453;28;20052;-73
2022/12/27 14:10:15;;;;;;;10.73;4.00;;;;;;;;;;5091680;28;20347;-73
2022/12/27 14:12:57;;;;;;;9.53;4.47;;;;;;;;;;5088922;28;20032;-72
2022/12/27 14:15:33;;;;;;;7.50;3.67;;;;;;;;;;5076680;28;20039;-72
2022/12/27 14:18:02;;;;;;;7.38;4.00;;;;;;;;;;5080229;28;20297;-72
2022/12/27 14:20:35;;;;;;;11.70;4.45;;;;;;;;;;5079454;28;20059;-73
2022/12/27 14:23:23;;;;;;;9.40;3.85;;;6.30;99.90;;;;;;5079208;28;20044;-73
2022/12/27 14:26:08;;;;;;;8.35;4.97;;;;;;;;;;5060371;28;20040;-72
2022/12/27 14:29:13;;;;;;;9.38;4.20;;;6.10;99.90;;;;;;5073589;28;20040;-73
2022/12/27 14:32:06;;;;;;;12.77;5.25;;;;;;;;;;5069435;28;20055;-73
2022/12/27 14:34:38;;;;;;;10.35;5.55;;;;;;;;;;5052201;28;20534;-72
2022/12/27 14:37:13;;;;;;;15.03;5.57;;;;;;;;;;5074809;28;20502;-73
2022/12/27 14:40:16;;;;;;;11.80;6.05;;;6.10;99.90;;;;;;5077798;28;20841;-73
2022/12/27 14:42:59;;;;;;;8.38;5.40;;;6.00;99.90;;;;;;5058193;28;20043;-73
2022/12/27 14:45:35;;;;;;;11.60;6.57;;;;;;;;;;5059943;28;20089;-73
2022/12/27 14:48:01;;;;;;;15.48;6.00;;;;;;;;;;5081578;28;20036;-73
2022/12/27 14:50:30;;;;;;;10.75;5.65;;;;;;;;;;5080212;28;20480;-72
2022/12/27 14:52:59;;;;;;;16.70;6.88;;;;;;;;;;5079737;28;20046;-72
2022/12/27 14:55:40;;;;;;;10.80;5.72;;;;;;;;;;5053069;28;20164;-73
2022/12/27 14:58:12;;;;;;;19.77;7.18;;;;;;;;;;5079565;28;20088;-72
2022/12/27 15:00:53;;;;;;;10.27;6.57;;;;;;;;;;5068365;28;20618;-72
2022/12/27 15:03:37;;;;;;;11.52;7.30;;;;;;;;;;5077677;28;20047;-73
2022/12/27 15:06:16;;;;;;;20.00;8.23;;;;;;;;;;5093795;28;20048;-71
2022/12/27 15:08:42;;;;;;;18.70;6.85;;;;;;;;;;5057181;28;20210;-73
2022/12/27 15:11:19;;;;;;;17.30;6.47;;;;;;;;;;5086200;28;20039;-73
2022/12/27 15:13:51;;;;;;;13.60;6.25;;;;;;;;;;5088928;28;20185;-73
2022/12/27 15:16:36;;;;;;;12.70;6.07;;;;;;;;;;5085422;28;20032;-72
2022/12/27 15:19:25;;;;;;;11.45;6.80;;;;;;;;;;5085676;28;20040;-73
2022/12/27 15:21:55;;;;;;;21.27;6.45;;;;;;;;;;5084574;28;20207;-72
2022/12/27 15:24:33;;;;;;;13.20;6.05;;;;;;;;;;5078993;28;20037;-73
2022/12/27 15:27:18;;;;;;;12.45;6.25;;;;;;;;;;5073283;28;20032;-73
2022/12/27 15:29:50;;;;;;;11.02;6.00;;;;;;;;;;5073913;28;20098;-72
2022/12/27 15:32:23;;;;;;;15.60;8.63;;;;;;;;;;5075324;28;20330;-73
2022/12/27 15:35:08;;;;;;;12.15;6.30;;;;;;;;;;5073393;28;20506;-72
2022/12/27 15:37:52;;;;;;;16.23;7.80;;;;;;;;;;5077101;28;20493;-73
2022/12/27 15:40:24;;;;;;;15.65;7.18;;;;;;;;;;5076228;28;20052;-72
2022/12/27 15:43:01;;;;;;;26.88;7.43;;;;;;;;;;5079204;28;20071;-73
2022/12/27 15:45:27;;;;;;;11.55;7.72;;;;;;;;;;5086381;28;20543;-72
2022/12/27 15:48:11;;;;;;;13.68;7.32;;;;;;;;;;5082444;28;20033;-73
2022/12/27 15:50:43;;;;;;;19.25;7.47;;;;;;;;;;5079293;28;20085;-73
2022/12/27 15:53:25;;;;;;;11.60;7.70;;;;;;;;;;5069632;28;20059;-73
2022/12/27 15:56:05;;;;;;;19.83;8.93;;;;;;;;;;5067467;28;20044;-73
2022/12/27 15:58:31;;;;;;;13.63;8.43;;;;;;;;;;5090420;28;20036;-73
2022/12/27 16:01:15;;;;;;;15.27;8.88;;;;;;;;;;5055837;28;20120;-73
2022/12/27 16:03:46;;;;;;;16.48;8.60;;;;;;;;;;5079807;28;20104;-73
2022/12/27 16:06:31;;;;;;;18.08;10.07;;;;;;;;;;5089375;28;20051;-73
2022/12/27 16:09:16;;;;;;;18.10;8.43;;;;;;;;;;5089465;28;20040;-73
2022/12/27 16:12:02;;;;;;;24.15;14.15;;;;;;;;;;5078515;28;20075;-72
2022/12/27 16:14:29;;;;;;;23.17;15.48;;;;;;;;;;5090117;28;20059;-72
2022/12/27 16:17:01;;;;;;;15.00;9.45;;;;;;;;;;5064076;28;20505;-72
2022/12/27 16:19:44;;;;;;;16.15;8.60;;;;;;;;;;5082313;28;20047;-72
2022/12/27 16:22:10;;;;;;;;;;;;;;;;;;5062371;28;20144;-73
2022/12/27 16:24:40;;;;;;;13.63;8.63;;;;;;;;;;5063588;28;19975;-72
2022/12/27 16:27:07;;;;;;;14.32;8.48;;;;;;;;;;5063167;28;20047;-73
2022/12/27 16:29:34;;;;;;;15.32;8.80;;;;;;;;;;5076103;28;20135;-72
2022/12/27 16:32:15;;;;;;;18.23;9.88;;;;;;;;;;5085716;28;20024;-73